createdAt,value
2018-07-23T00:00:18.383Z,50.70
2018-07-23T00:01:23.401Z,51.40
2018-07-23T00:02:28.404Z,51.30
2018-07-23T00:03:33.264Z,50.70
2018-07-23T00:04:38.226Z,50.70
2018-07-23T00:05:43.352Z,50.60
2018-07-23T00:06:48.124Z,50.70
2018-07-23T00:07:52.916Z,50.60
2018-07-23T00:08:58.004Z,50.60
2018-07-23T00:10:03.052Z,50.60
2018-07-23T00:11:07.893Z,50.60
2018-07-23T00:12:12.730Z,50.60
2018-07-23T00:13:17.756Z,50.70
2018-07-23T00:14:22.852Z,50.60
2018-07-23T00:15:27.898Z,50.60
2018-07-23T00:16:32.896Z,50.60
2018-07-23T00:17:37.740Z,50.60
2018-07-23T00:18:42.723Z,50.70
2018-07-23T00:19:47.790Z,50.60
2018-07-23T00:20:52.782Z,50.60
2018-07-23T00:21:57.619Z,50.60
2018-07-23T00:23:02.585Z,50.60
2018-07-23T00:24:07.448Z,50.60
2018-07-23T00:25:12.239Z,50.60
2018-07-23T00:26:17.252Z,50.60
2018-07-23T00:27:22.096Z,50.60
2018-07-23T00:28:26.997Z,50.70
2018-07-23T00:29:31.847Z,50.60
2018-07-23T00:30:36.829Z,50.60
2018-07-23T00:31:41.828Z,50.60
2018-07-23T00:32:46.835Z,50.60
2018-07-23T00:33:51.723Z,50.60
2018-07-23T00:34:56.534Z,50.70
2018-07-23T00:36:01.465Z,50.60
2018-07-23T00:37:06.488Z,50.60
2018-07-23T00:38:11.479Z,50.70
2018-07-23T00:39:16.337Z,50.60
2018-07-23T00:40:21.324Z,50.60
2018-07-23T00:41:26.334Z,50.60
2018-07-23T00:42:31.320Z,50.70
2018-07-23T00:43:36.272Z,50.60
2018-07-23T00:44:41.287Z,50.60
2018-07-23T00:45:46.069Z,50.70
2018-07-23T00:46:50.926Z,50.60
2018-07-23T00:47:55.801Z,50.60
2018-07-23T00:49:00.625Z,50.60
2018-07-23T00:50:05.559Z,50.70
2018-07-23T00:51:10.536Z,50.60
2018-07-23T00:52:15.605Z,50.70
2018-07-23T00:53:20.600Z,50.60
2018-07-23T00:54:25.450Z,50.60
2018-07-23T00:55:30.294Z,50.70
2018-07-23T00:56:35.094Z,50.60
2018-07-23T00:57:40.112Z,50.60
2018-07-23T00:58:45.142Z,50.80
2018-07-23T00:59:50.224Z,50.60
2018-07-23T01:00:55.095Z,50.60
2018-07-23T01:02:00.009Z,50.60
2018-07-23T01:03:04.855Z,50.60
2018-07-23T01:04:09.774Z,50.60
2018-07-23T01:05:14.655Z,50.60
2018-07-23T01:06:19.769Z,50.60
2018-07-23T01:07:24.767Z,50.60
2018-07-23T01:08:29.891Z,50.60
2018-07-23T01:09:35.193Z,50.60
2018-07-23T01:10:42.003Z,50.60
2018-07-23T01:11:47.130Z,50.60
2018-07-23T01:12:52.247Z,50.70
2018-07-23T01:13:57.216Z,50.60
2018-07-23T01:15:02.240Z,50.70
2018-07-23T01:16:07.327Z,50.70
2018-07-23T01:17:12.276Z,50.70
2018-07-23T01:18:17.244Z,50.70
2018-07-23T01:19:22.042Z,50.70
2018-07-23T01:20:27.006Z,50.70
2018-07-23T01:21:31.991Z,50.70
2018-07-23T01:22:36.770Z,50.70
2018-07-23T01:23:41.485Z,51.00
2018-07-23T01:24:46.497Z,51.30
2018-07-23T01:25:51.477Z,51.50
2018-07-23T01:26:56.284Z,51.80
2018-07-23T01:28:01.054Z,51.90
2018-07-23T01:29:06.057Z,52.20
2018-07-23T01:30:10.827Z,52.30
2018-07-23T01:31:15.758Z,52.50
2018-07-23T01:32:20.556Z,52.50
2018-07-23T01:33:25.326Z,52.70
2018-07-23T01:34:30.113Z,52.80
2018-07-23T01:35:35.065Z,52.80
2018-07-23T01:36:40.035Z,52.90
2018-07-23T01:37:44.845Z,53.00
2018-07-23T01:38:49.666Z,53.10
2018-07-23T01:39:54.552Z,53.00
2018-07-23T01:40:59.373Z,53.10
2018-07-23T01:42:04.377Z,53.10
2018-07-23T01:43:09.408Z,53.20
2018-07-23T01:44:14.440Z,53.20
2018-07-23T01:45:19.474Z,53.30
2018-07-23T01:46:24.261Z,53.30
2018-07-23T01:47:29.377Z,53.30
2018-07-23T01:48:34.418Z,53.30
2018-07-23T01:49:39.409Z,53.30
2018-07-23T01:50:44.282Z,53.30
2018-07-23T01:51:49.299Z,53.30
2018-07-23T01:52:54.339Z,53.40
2018-07-23T01:53:59.250Z,53.40
2018-07-23T01:55:04.206Z,53.40
2018-07-23T01:56:09.255Z,53.40
2018-07-23T01:57:14.223Z,53.40
2018-07-23T01:58:19.283Z,53.50
2018-07-23T01:59:24.308Z,53.50
2018-07-23T02:00:29.277Z,53.50
2018-07-23T02:01:34.205Z,53.60
2018-07-23T02:02:39.414Z,53.60
2018-07-23T02:03:44.503Z,53.60
2018-07-23T02:04:49.362Z,53.50
2018-07-23T02:05:54.481Z,53.50
2018-07-23T02:06:59.508Z,53.60
2018-07-23T02:08:04.677Z,53.60
2018-07-23T02:09:09.760Z,53.70
2018-07-23T02:10:14.647Z,53.60
2018-07-23T02:11:19.649Z,53.60
2018-07-23T02:12:24.758Z,53.70
2018-07-23T02:13:29.871Z,53.70
2018-07-23T02:14:34.899Z,53.70
2018-07-23T02:15:40.069Z,53.60
2018-07-23T02:16:45.256Z,53.70
2018-07-23T02:17:50.200Z,53.70
2018-07-23T02:18:55.289Z,53.70
2018-07-23T02:20:00.383Z,53.70
2018-07-23T02:21:05.487Z,53.70
2018-07-23T02:22:10.330Z,53.70
2018-07-23T02:23:15.399Z,53.70
2018-07-23T02:24:20.220Z,53.70
2018-07-23T02:25:25.229Z,53.70
2018-07-23T02:26:30.268Z,53.70
2018-07-23T02:27:35.280Z,53.80
2018-07-23T02:28:40.162Z,53.80
2018-07-23T02:29:45.281Z,53.90
2018-07-23T02:30:50.321Z,53.90
2018-07-23T02:31:55.333Z,53.80
2018-07-23T02:33:00.359Z,53.80
2018-07-23T02:34:05.188Z,53.80
2018-07-23T02:35:10.293Z,53.90
2018-07-23T02:36:15.148Z,53.90
2018-07-23T02:37:19.967Z,53.90
2018-07-23T02:38:24.990Z,53.90
2018-07-23T02:39:29.883Z,53.90
2018-07-23T02:40:34.988Z,54.00
2018-07-23T02:41:39.835Z,54.60
2018-07-23T02:42:44.715Z,53.90
2018-07-23T02:43:49.566Z,54.10
2018-07-23T02:44:54.452Z,53.90
2018-07-23T02:45:59.319Z,54.00
2018-07-23T02:47:04.237Z,54.00
2018-07-23T02:48:09.206Z,54.00
2018-07-23T02:49:14.103Z,54.00
2018-07-23T02:50:18.918Z,54.00
2018-07-23T02:51:23.787Z,54.00
2018-07-23T02:52:28.764Z,53.90
2018-07-23T02:53:33.820Z,54.00
2018-07-23T02:54:38.836Z,54.00
2018-07-23T02:55:43.632Z,54.00
2018-07-23T02:56:48.609Z,54.10
2018-07-23T02:57:53.499Z,54.10
2018-07-23T02:58:58.311Z,54.10
2018-07-23T03:00:03.295Z,54.10
2018-07-23T03:01:08.121Z,54.20
2018-07-23T03:02:13.194Z,54.10
2018-07-23T03:03:18.122Z,54.20
2018-07-23T03:04:23.108Z,54.10
2018-07-23T03:05:28.261Z,54.20
2018-07-23T03:06:38.654Z,54.20
2018-07-23T03:07:44.794Z,54.20
2018-07-23T03:08:51.034Z,54.30
2018-07-23T03:09:56.087Z,54.20
2018-07-23T03:11:01.161Z,54.30
2018-07-23T03:12:06.246Z,54.20
2018-07-23T03:13:11.377Z,54.20
2018-07-23T03:14:16.532Z,54.30
2018-07-23T03:15:21.480Z,54.40
2018-07-23T03:16:27.097Z,54.30
2018-07-23T03:17:32.138Z,54.30
2018-07-23T03:18:37.203Z,54.30
2018-07-23T03:19:42.305Z,54.30
2018-07-23T03:20:47.330Z,54.40
2018-07-23T03:21:52.321Z,54.40
2018-07-23T03:22:57.262Z,54.40
2018-07-23T03:24:02.292Z,54.40
2018-07-23T03:25:07.178Z,54.40
2018-07-23T03:26:12.014Z,54.40
2018-07-23T03:27:16.790Z,54.50
2018-07-23T03:28:21.626Z,54.50
2018-07-23T03:29:26.590Z,54.50
2018-07-23T03:30:31.409Z,54.50
2018-07-23T03:31:36.273Z,54.60
2018-07-23T03:32:41.075Z,54.60
2018-07-23T03:33:45.952Z,54.70
2018-07-23T03:34:50.993Z,54.70
2018-07-23T03:35:55.745Z,54.70
2018-07-23T03:37:00.782Z,54.70
2018-07-23T03:38:05.763Z,54.80
2018-07-23T03:39:10.594Z,54.80
2018-07-23T03:40:15.587Z,54.90
2018-07-23T03:41:20.542Z,54.70
2018-07-23T03:42:25.520Z,54.70
2018-07-23T03:43:30.516Z,54.70
2018-07-23T03:44:35.605Z,54.70
2018-07-23T03:45:40.612Z,54.80
2018-07-23T03:46:45.326Z,54.70
2018-07-23T03:47:50.326Z,54.80
2018-07-23T03:48:55.328Z,54.80
2018-07-23T03:50:00.357Z,54.80
2018-07-23T03:51:05.355Z,54.80
2018-07-23T03:52:10.846Z,54.80
2018-07-23T03:53:15.737Z,54.80
2018-07-23T03:54:20.603Z,54.80
2018-07-23T03:55:25.480Z,54.80
2018-07-23T03:56:31.751Z,54.90
2018-07-23T03:57:36.633Z,54.90
2018-07-23T03:58:41.673Z,54.90
2018-07-23T03:59:46.580Z,55.00
2018-07-23T04:00:51.438Z,55.00
2018-07-23T04:01:56.330Z,55.00
2018-07-23T04:03:01.276Z,55.10
2018-07-23T04:04:06.329Z,55.10
2018-07-23T04:05:11.230Z,55.10
2018-07-23T04:06:16.222Z,55.10
2018-07-23T04:07:21.197Z,55.10
2018-07-23T04:08:26.003Z,55.10
2018-07-23T04:09:30.958Z,55.10
2018-07-23T04:10:36.026Z,55.10
2018-07-23T04:11:40.788Z,55.10
2018-07-23T04:12:45.587Z,55.10
2018-07-23T04:13:50.568Z,55.10
2018-07-23T04:14:55.538Z,55.20
2018-07-23T04:16:00.523Z,55.20
2018-07-23T04:17:05.321Z,55.20
2018-07-23T04:18:10.068Z,55.30
2018-07-23T04:19:15.050Z,55.20
2018-07-23T04:20:20.044Z,55.30
2018-07-23T04:21:24.863Z,55.30
2018-07-23T04:22:29.991Z,55.30
2018-07-23T04:23:35.073Z,55.30
2018-07-23T04:24:40.049Z,55.40
2018-07-23T04:25:44.984Z,55.40
2018-07-23T04:26:49.843Z,55.30
2018-07-23T04:27:54.791Z,55.30
2018-07-23T04:28:59.754Z,55.40
2018-07-23T04:30:04.724Z,55.40
2018-07-23T04:31:09.612Z,55.40
2018-07-23T04:32:14.388Z,55.50
2018-07-23T04:33:19.182Z,55.50
2018-07-23T04:34:24.193Z,55.50
2018-07-23T04:35:28.978Z,55.50
2018-07-23T04:36:33.990Z,55.60
2018-07-23T04:37:38.939Z,55.50
2018-07-23T04:38:43.715Z,55.60
2018-07-23T04:39:48.476Z,55.60
2018-07-23T04:40:53.488Z,55.60
2018-07-23T04:41:58.524Z,55.60
2018-07-23T04:43:03.351Z,55.70
2018-07-23T04:44:08.245Z,55.60
2018-07-23T04:45:13.259Z,56.40
2018-07-23T04:46:18.229Z,55.70
2018-07-23T04:47:23.233Z,55.70
2018-07-23T04:48:28.209Z,55.70
2018-07-23T04:49:33.232Z,55.70
2018-07-23T04:50:38.482Z,55.70
2018-07-23T04:51:43.575Z,55.70
2018-07-23T04:52:49.488Z,55.80
2018-07-23T04:53:55.301Z,55.90
2018-07-23T04:55:00.326Z,55.90
2018-07-23T04:56:05.400Z,56.00
2018-07-23T04:57:10.355Z,56.00
2018-07-23T04:58:15.763Z,56.00
2018-07-23T04:59:21.068Z,56.00
2018-07-23T05:00:26.385Z,56.00
2018-07-23T05:01:31.545Z,56.10
2018-07-23T05:02:36.532Z,56.00
2018-07-23T05:03:41.637Z,56.00
2018-07-23T05:04:46.675Z,55.90
2018-07-23T05:05:51.700Z,55.90
2018-07-23T05:06:56.726Z,55.80
2018-07-23T05:08:01.808Z,55.80
2018-07-23T05:09:06.863Z,55.90
2018-07-23T05:10:11.931Z,55.80
2018-07-23T05:11:16.782Z,55.90
2018-07-23T05:12:21.810Z,55.90
2018-07-23T05:13:26.946Z,55.90
2018-07-23T05:14:31.922Z,55.90
2018-07-23T05:15:37.020Z,55.90
2018-07-23T05:16:42.115Z,55.90
2018-07-23T05:17:47.044Z,55.90
2018-07-23T05:18:52.176Z,55.90
2018-07-23T05:19:57.214Z,55.90
2018-07-23T05:21:02.182Z,55.90
2018-07-23T05:22:07.028Z,55.90
2018-07-23T05:23:12.141Z,55.90
2018-07-23T05:24:17.350Z,55.80
2018-07-23T05:25:22.178Z,56.00
2018-07-23T05:26:27.186Z,55.90
2018-07-23T05:27:32.254Z,55.70
2018-07-23T05:28:37.350Z,55.60
2018-07-23T05:29:42.770Z,55.50
2018-07-23T05:30:47.948Z,55.50
2018-07-23T05:31:53.067Z,55.50
2018-07-23T05:32:57.989Z,55.50
2018-07-23T05:34:03.393Z,55.40
2018-07-23T05:35:08.682Z,55.30
2018-07-23T05:36:13.776Z,55.30
2018-07-23T05:37:19.006Z,55.20
2018-07-23T05:38:24.362Z,55.10
2018-07-23T05:39:29.574Z,55.00
2018-07-23T05:40:34.842Z,54.90
2018-07-23T05:41:40.041Z,54.90
2018-07-23T05:42:45.019Z,54.90
2018-07-23T05:43:50.234Z,55.00
2018-07-23T05:44:55.482Z,55.00
2018-07-23T05:46:00.492Z,54.90
2018-07-23T05:47:05.527Z,54.80
2018-07-23T05:48:10.741Z,54.80
2018-07-23T05:49:15.917Z,54.80
2018-07-23T05:50:20.868Z,54.90
2018-07-23T05:51:26.036Z,54.80
2018-07-23T05:52:31.283Z,54.90
2018-07-23T05:53:36.515Z,55.00
2018-07-23T05:54:41.524Z,54.90
2018-07-23T05:55:46.708Z,54.80
2018-07-23T05:56:51.610Z,54.90
2018-07-23T05:57:56.746Z,54.90
2018-07-23T05:59:01.892Z,54.90
2018-07-23T06:00:07.054Z,54.80
2018-07-23T06:01:11.979Z,54.80
2018-07-23T06:02:17.001Z,54.70
2018-07-23T06:03:21.924Z,54.70
2018-07-23T06:04:26.920Z,54.80
2018-07-23T06:05:32.072Z,54.70
2018-07-23T06:06:37.030Z,54.70
2018-07-23T06:07:42.299Z,54.90
2018-07-23T06:08:47.254Z,55.50
2018-07-23T06:09:52.296Z,55.00
2018-07-23T06:10:57.398Z,54.80
2018-07-23T06:12:02.277Z,54.70
2018-07-23T06:13:07.418Z,54.70
2018-07-23T06:14:12.265Z,54.60
2018-07-23T06:15:17.909Z,54.70
2018-07-23T06:16:22.888Z,54.70
2018-07-23T06:17:27.745Z,54.70
2018-07-23T06:18:32.646Z,54.80
2018-07-23T06:19:37.740Z,54.80
2018-07-23T06:20:43.143Z,54.60
2018-07-23T06:21:48.141Z,54.60
2018-07-23T06:22:53.363Z,54.70
2018-07-23T06:23:58.471Z,54.70
2018-07-23T06:25:03.398Z,54.70
2018-07-23T06:26:08.452Z,54.70
2018-07-23T06:27:13.624Z,54.60
2018-07-23T06:28:18.846Z,54.60
2018-07-23T06:29:23.892Z,54.70
2018-07-23T06:30:29.093Z,54.60
2018-07-23T06:31:34.751Z,54.70
2018-07-23T06:32:39.956Z,54.60
2018-07-23T06:33:44.972Z,54.60
2018-07-23T06:34:50.030Z,54.50
2018-07-23T06:35:55.326Z,54.70
2018-07-23T06:37:00.262Z,54.70
2018-07-23T06:38:05.421Z,54.90
2018-07-23T06:39:10.327Z,54.90
2018-07-23T06:40:15.370Z,55.10
2018-07-23T06:41:20.529Z,55.10
2018-07-23T06:42:25.646Z,55.10
2018-07-23T06:43:30.744Z,55.00
2018-07-23T06:44:35.818Z,55.10
2018-07-23T06:45:40.729Z,55.10
2018-07-23T06:46:45.904Z,55.10
2018-07-23T06:47:51.116Z,55.00
2018-07-23T06:48:56.183Z,54.90
2018-07-23T06:50:01.225Z,54.90
2018-07-23T06:51:06.171Z,54.80
2018-07-23T06:52:11.097Z,54.80
2018-07-23T06:53:16.030Z,54.80
2018-07-23T06:54:21.032Z,54.90
2018-07-23T06:55:26.346Z,54.80
2018-07-23T06:56:31.421Z,54.80
2018-07-23T06:57:36.350Z,54.80
2018-07-23T06:58:41.408Z,54.70
2018-07-23T06:59:47.145Z,54.70
2018-07-23T07:00:52.110Z,54.80
2018-07-23T07:01:57.161Z,54.70
2018-07-23T07:03:04.064Z,54.90
2018-07-23T07:04:09.247Z,54.90
2018-07-23T07:05:14.159Z,54.90
2018-07-23T07:06:19.340Z,54.90
2018-07-23T07:07:24.369Z,54.80
2018-07-23T07:08:29.640Z,54.80
2018-07-23T07:09:34.580Z,54.80
2018-07-23T07:10:39.646Z,54.80
2018-07-23T07:11:44.832Z,54.80
2018-07-23T07:12:49.999Z,54.80
2018-07-23T07:13:55.332Z,55.00
2018-07-23T07:15:00.530Z,55.00
2018-07-23T07:16:05.632Z,55.10
2018-07-23T07:17:10.615Z,55.10
2018-07-23T07:18:15.837Z,55.20
2018-07-23T07:19:20.712Z,55.20
2018-07-23T07:20:25.911Z,55.20
2018-07-23T07:21:30.951Z,55.20
2018-07-23T07:22:36.166Z,55.20
2018-07-23T07:23:41.064Z,55.10
2018-07-23T07:24:46.241Z,55.10
2018-07-23T07:25:51.631Z,55.00
2018-07-23T07:26:56.937Z,55.00
2018-07-23T07:28:02.961Z,55.00
2018-07-23T07:29:08.177Z,54.90
2018-07-23T07:30:13.413Z,54.90
2018-07-23T07:31:18.431Z,54.90
2018-07-23T07:32:25.912Z,54.90
2018-07-23T07:33:31.277Z,55.00
2018-07-23T07:34:36.609Z,55.00
2018-07-23T07:35:41.763Z,55.10
2018-07-23T07:36:46.773Z,55.10
2018-07-23T07:37:51.741Z,55.00
2018-07-23T07:38:56.770Z,55.00
2018-07-23T07:40:02.288Z,54.90
2018-07-23T07:41:07.860Z,55.00
2018-07-23T07:42:12.882Z,54.90
2018-07-23T07:43:17.880Z,54.90
2018-07-23T07:44:23.438Z,54.80
2018-07-23T07:45:28.642Z,54.80
2018-07-23T07:46:33.792Z,54.70
2018-07-23T07:47:39.003Z,54.70
2018-07-23T07:48:44.414Z,54.60
2018-07-23T07:49:49.537Z,54.70
2018-07-23T07:50:54.678Z,54.60
2018-07-23T07:51:59.849Z,54.70
2018-07-23T07:53:05.000Z,54.70
2018-07-23T07:54:09.999Z,54.70
2018-07-23T07:55:15.133Z,54.70
2018-07-23T07:56:20.931Z,54.70
2018-07-23T07:57:26.791Z,54.60
2018-07-23T07:58:31.885Z,54.50
2018-07-23T07:59:36.928Z,54.50
2018-07-23T08:00:41.986Z,54.40
2018-07-23T08:01:48.238Z,54.30
2018-07-23T08:02:53.391Z,54.30
2018-07-23T08:03:58.526Z,54.20
2018-07-23T08:05:03.396Z,54.20
2018-07-23T08:06:08.265Z,54.30
2018-07-23T08:07:13.364Z,54.20
2018-07-23T08:08:18.385Z,54.20
2018-07-23T08:09:23.261Z,54.20
2018-07-23T08:10:28.128Z,54.10
2018-07-23T08:11:33.184Z,54.10
2018-07-23T08:12:38.227Z,54.10
2018-07-23T08:13:43.240Z,54.00
2018-07-23T08:14:48.287Z,54.00
2018-07-23T08:15:53.219Z,54.00
2018-07-23T08:16:58.000Z,54.00
2018-07-23T08:18:02.808Z,53.90
2018-07-23T08:19:07.892Z,54.00
2018-07-23T08:20:12.938Z,53.90
2018-07-23T08:21:18.076Z,53.90
2018-07-23T08:22:23.198Z,53.80
2018-07-23T08:23:28.206Z,53.80
2018-07-23T08:24:33.295Z,53.80
2018-07-23T08:25:39.150Z,53.90
2018-07-23T08:26:44.024Z,53.80
2018-07-23T08:27:48.983Z,53.80
2018-07-23T08:28:53.874Z,53.90
2018-07-23T08:29:58.927Z,53.80
2018-07-23T08:31:03.921Z,53.80
2018-07-23T08:32:09.312Z,53.80
2018-07-23T08:33:14.178Z,53.80
2018-07-23T08:34:19.145Z,53.80
2018-07-23T08:35:24.051Z,53.80
2018-07-23T08:36:29.177Z,53.80
2018-07-23T08:37:34.013Z,53.80
2018-07-23T08:38:39.057Z,53.80
2018-07-23T08:39:44.025Z,53.80
2018-07-23T08:40:48.906Z,53.80
2018-07-23T08:41:53.785Z,53.70
2018-07-23T08:42:59.009Z,53.70
2018-07-23T08:44:04.078Z,53.70
2018-07-23T08:45:09.530Z,53.70
2018-07-23T08:46:14.450Z,53.70
2018-07-23T08:47:19.458Z,53.60
2018-07-23T08:48:24.384Z,53.70
2018-07-23T08:49:29.402Z,53.60
2018-07-23T08:50:34.199Z,53.70
2018-07-23T08:51:39.242Z,53.70
2018-07-23T08:52:44.104Z,53.60
2018-07-23T08:53:49.126Z,53.70
2018-07-23T08:54:54.138Z,53.60
2018-07-23T08:55:59.583Z,53.60
2018-07-23T08:57:04.585Z,53.60
2018-07-23T08:58:09.637Z,53.60
2018-07-23T08:59:16.431Z,53.60
2018-07-23T09:00:21.470Z,53.60
2018-07-23T09:01:26.554Z,53.60
2018-07-23T09:02:31.644Z,53.60
2018-07-23T09:03:36.659Z,53.60
2018-07-23T09:04:41.570Z,53.50
2018-07-23T09:05:46.728Z,53.60
2018-07-23T09:06:51.868Z,53.60
2018-07-23T09:07:56.980Z,53.50
2018-07-23T09:09:02.091Z,53.50
2018-07-23T09:10:07.149Z,53.50
2018-07-23T09:11:12.074Z,53.60
2018-07-23T09:12:16.988Z,53.50
2018-07-23T09:13:22.028Z,53.50
2018-07-23T09:14:27.040Z,53.50
2018-07-23T09:15:32.128Z,53.50
2018-07-23T09:16:37.203Z,53.50
2018-07-23T09:17:42.279Z,53.50
2018-07-23T09:18:47.361Z,53.50
2018-07-23T09:19:52.398Z,53.50
2018-07-23T09:20:57.476Z,53.50
2018-07-23T09:22:02.334Z,53.40
2018-07-23T09:23:07.198Z,53.50
2018-07-23T09:24:12.234Z,53.50
2018-07-23T09:25:17.069Z,53.50
2018-07-23T09:26:21.833Z,53.50
2018-07-23T09:27:26.803Z,53.50
2018-07-23T09:28:31.621Z,53.50
2018-07-23T09:29:36.640Z,53.50
2018-07-23T09:30:41.921Z,53.40
2018-07-23T09:31:47.422Z,53.40
2018-07-23T09:32:52.578Z,54.10
2018-07-23T09:33:57.687Z,53.30
2018-07-23T09:35:02.835Z,53.40
2018-07-23T09:36:07.920Z,53.40
2018-07-23T09:37:13.013Z,53.40
2018-07-23T09:38:18.464Z,53.50
2018-07-23T09:39:23.456Z,53.40
2018-07-23T09:40:28.515Z,53.40
2018-07-23T09:41:33.728Z,53.40
2018-07-23T09:42:38.766Z,53.40
2018-07-23T09:43:43.975Z,53.50
2018-07-23T09:44:48.957Z,53.40
2018-07-23T09:45:54.067Z,54.00
2018-07-23T09:46:58.949Z,53.40
2018-07-23T09:48:03.871Z,53.40
2018-07-23T09:49:08.953Z,53.40
2018-07-23T09:50:13.931Z,53.40
2018-07-23T09:51:19.017Z,53.40
2018-07-23T09:52:24.139Z,53.40
2018-07-23T09:53:29.069Z,53.40
2018-07-23T09:54:34.119Z,53.40
2018-07-23T09:55:39.036Z,53.40
2018-07-23T09:56:44.017Z,53.40
2018-07-23T09:57:49.097Z,53.40
2018-07-23T09:58:53.929Z,53.40
2018-07-23T09:59:58.847Z,53.40
2018-07-23T10:01:03.810Z,53.40
2018-07-23T10:02:08.828Z,53.50
2018-07-23T10:03:13.883Z,53.40
2018-07-23T10:04:18.774Z,53.40
2018-07-23T10:05:23.706Z,53.40
2018-07-23T10:06:28.769Z,53.40
2018-07-23T10:07:33.872Z,53.40
2018-07-23T10:08:38.966Z,53.30
2018-07-23T10:09:44.024Z,53.40
2018-07-23T10:10:51.241Z,53.40
2018-07-23T10:11:56.657Z,53.40
2018-07-23T10:13:01.537Z,53.30
2018-07-23T10:14:06.637Z,53.40
2018-07-23T10:15:23.570Z,53.40
2018-07-23T10:16:28.619Z,53.40
2018-07-23T10:17:33.519Z,53.40
2018-07-23T10:18:38.392Z,53.40
2018-07-23T10:19:43.352Z,53.40
2018-07-23T10:20:48.380Z,53.30
2018-07-23T10:21:53.435Z,53.40
2018-07-23T10:22:58.425Z,53.40
2018-07-23T10:24:03.556Z,53.40
2018-07-23T10:25:08.530Z,53.40
2018-07-23T10:26:13.564Z,53.40
2018-07-23T10:27:18.662Z,53.40
2018-07-23T10:28:23.569Z,53.40
2018-07-23T10:29:28.710Z,53.40
2018-07-23T10:30:33.728Z,53.40
2018-07-23T10:31:38.654Z,53.40
2018-07-23T10:32:43.586Z,53.40
2018-07-23T10:33:49.162Z,53.40
2018-07-23T10:34:54.214Z,53.40
2018-07-23T10:35:59.276Z,53.40
2018-07-23T10:37:04.317Z,53.30
2018-07-23T10:38:09.606Z,53.30
2018-07-23T10:39:14.728Z,53.30
2018-07-23T10:40:20.005Z,53.30
2018-07-23T10:41:25.070Z,53.30
2018-07-23T10:42:30.776Z,53.30
2018-07-23T10:43:35.955Z,53.30
2018-07-23T10:44:40.980Z,53.30
2018-07-23T10:45:45.947Z,53.30
2018-07-23T10:46:51.110Z,53.30
2018-07-23T10:47:56.079Z,53.30
2018-07-23T10:49:01.158Z,53.30
2018-07-23T10:50:06.252Z,53.30
2018-07-23T10:51:11.390Z,53.30
2018-07-23T10:52:16.336Z,53.30
2018-07-23T10:53:21.305Z,53.30
2018-07-23T10:54:26.457Z,53.30
2018-07-23T10:55:31.632Z,53.30
2018-07-23T10:56:36.598Z,53.30
2018-07-23T10:57:41.677Z,53.30
2018-07-23T10:58:46.770Z,53.30
2018-07-23T10:59:51.640Z,53.30
2018-07-23T11:00:56.709Z,53.30
2018-07-23T11:02:01.736Z,53.30
2018-07-23T11:03:06.663Z,53.30
2018-07-23T11:04:11.843Z,53.30
2018-07-23T11:05:16.855Z,53.30
2018-07-23T11:06:21.817Z,53.30
2018-07-23T11:07:27.028Z,53.30
2018-07-23T11:08:31.894Z,53.30
2018-07-23T11:09:36.818Z,53.30
2018-07-23T11:10:41.636Z,53.30
2018-07-23T11:11:46.809Z,53.30
2018-07-23T11:12:51.987Z,53.30
2018-07-23T11:13:56.892Z,53.30
2018-07-23T11:15:01.972Z,53.30
2018-07-23T11:16:07.017Z,53.30
2018-07-23T11:17:12.078Z,53.30
2018-07-23T11:18:17.958Z,53.20
2018-07-23T11:19:23.056Z,53.20
2018-07-23T11:20:28.458Z,53.20
2018-07-23T11:21:33.383Z,53.20
2018-07-23T11:22:38.403Z,53.30
2018-07-23T11:23:43.424Z,53.20
2018-07-23T11:24:48.608Z,53.20
2018-07-23T11:25:53.509Z,53.30
2018-07-23T11:26:58.612Z,53.20
2018-07-23T11:28:03.741Z,53.20
2018-07-23T11:29:08.811Z,53.20
2018-07-23T11:30:13.700Z,53.20
2018-07-23T11:31:18.638Z,53.20
2018-07-23T11:32:23.562Z,53.20
2018-07-23T11:33:28.671Z,53.20
2018-07-23T11:34:33.564Z,53.20
2018-07-23T11:35:38.654Z,53.30
2018-07-23T11:36:43.532Z,53.20
2018-07-23T11:37:48.573Z,53.20
2018-07-23T11:38:53.590Z,53.20
2018-07-23T11:39:58.542Z,53.30
2018-07-23T11:41:03.406Z,53.10
2018-07-23T11:42:08.227Z,53.20
2018-07-23T11:43:13.149Z,53.10
2018-07-23T11:44:18.268Z,53.20
2018-07-23T11:45:23.391Z,53.20
2018-07-23T11:46:28.160Z,53.20
2018-07-23T11:47:33.189Z,53.20
2018-07-23T11:48:38.182Z,53.20
2018-07-23T11:49:43.204Z,53.20
2018-07-23T11:50:48.350Z,53.20
2018-07-23T11:51:53.213Z,53.20
2018-07-23T11:52:58.085Z,53.20
2018-07-23T11:54:03.063Z,53.20
2018-07-23T11:55:07.998Z,53.20
2018-07-23T11:56:13.023Z,53.20
2018-07-23T11:57:18.812Z,53.20
2018-07-23T11:58:24.127Z,53.20
2018-07-23T11:59:29.565Z,53.20
2018-07-23T12:00:34.380Z,53.20
2018-07-23T12:01:39.265Z,53.20
2018-07-23T12:02:44.299Z,53.10
2018-07-23T12:03:49.189Z,53.10
2018-07-23T12:04:54.262Z,53.10
2018-07-23T12:05:59.186Z,53.10
2018-07-23T12:07:04.209Z,53.10
2018-07-23T12:08:09.244Z,53.20
2018-07-23T12:09:14.399Z,53.10
2018-07-23T12:10:19.375Z,53.10
2018-07-23T12:11:24.211Z,53.10
2018-07-23T12:12:29.232Z,53.10
2018-07-23T12:13:34.313Z,53.20
2018-07-23T12:14:39.279Z,53.10
2018-07-23T12:15:44.132Z,53.10
2018-07-23T12:16:49.230Z,53.20
2018-07-23T12:17:54.416Z,53.10
2018-07-23T12:18:59.333Z,53.10
2018-07-23T12:20:04.821Z,53.20
2018-07-23T12:21:09.960Z,53.10
2018-07-23T12:22:14.976Z,53.20
2018-07-23T12:23:20.160Z,53.10
2018-07-23T12:24:25.164Z,53.10
2018-07-23T12:25:30.191Z,53.10
2018-07-23T12:26:35.399Z,53.10
2018-07-23T12:27:40.591Z,53.10
2018-07-23T12:28:45.532Z,53.10
2018-07-23T12:29:50.460Z,53.10
2018-07-23T12:30:55.479Z,53.10
2018-07-23T12:32:00.351Z,53.10
2018-07-23T12:33:05.443Z,53.10
2018-07-23T12:34:10.309Z,53.10
2018-07-23T12:35:15.306Z,53.10
2018-07-23T12:36:20.445Z,53.10
2018-07-23T12:37:25.273Z,53.10
2018-07-23T12:38:30.214Z,53.10
2018-07-23T12:39:35.338Z,53.10
2018-07-23T12:40:40.341Z,53.10
2018-07-23T12:41:45.451Z,53.10
2018-07-23T12:42:50.970Z,53.10
2018-07-23T12:43:56.056Z,53.10
2018-07-23T12:45:01.150Z,53.10
2018-07-23T12:46:06.265Z,53.10
2018-07-23T12:47:11.269Z,53.10
2018-07-23T12:48:16.124Z,53.10
2018-07-23T12:49:20.972Z,53.10
2018-07-23T12:50:25.928Z,53.10
2018-07-23T12:51:31.144Z,53.10
2018-07-23T12:52:36.409Z,53.00
2018-07-23T12:53:41.454Z,53.00
2018-07-23T12:54:46.645Z,53.00
2018-07-23T12:55:51.720Z,53.00
2018-07-23T12:56:56.817Z,53.00
2018-07-23T12:58:01.775Z,53.00
2018-07-23T12:59:06.726Z,53.00
2018-07-23T13:00:11.644Z,53.00
2018-07-23T13:01:16.636Z,53.00
2018-07-23T13:02:21.527Z,53.00
2018-07-23T13:03:26.600Z,53.00
2018-07-23T13:04:31.629Z,53.00
2018-07-23T13:05:36.822Z,53.00
2018-07-23T13:06:41.964Z,53.00
2018-07-23T13:07:46.877Z,53.00
2018-07-23T13:08:51.856Z,53.00
2018-07-23T13:09:57.137Z,53.00
2018-07-23T13:11:02.071Z,53.00
2018-07-23T13:12:07.174Z,52.90
2018-07-23T13:13:12.092Z,53.00
2018-07-23T13:14:17.144Z,52.90
2018-07-23T13:15:22.337Z,53.00
2018-07-23T13:16:27.413Z,52.90
2018-07-23T13:17:32.512Z,52.90
2018-07-23T13:18:37.640Z,52.90
2018-07-23T13:19:42.884Z,52.90
2018-07-23T13:20:47.965Z,52.90
2018-07-23T13:21:52.921Z,52.90
2018-07-23T13:22:57.899Z,52.90
2018-07-23T13:24:02.997Z,52.90
2018-07-23T13:25:08.261Z,52.90
2018-07-23T13:26:13.334Z,52.90
2018-07-23T13:27:18.389Z,52.90
2018-07-23T13:28:23.648Z,52.90
2018-07-23T13:29:28.721Z,52.90
2018-07-23T13:30:33.711Z,52.90
2018-07-23T13:31:39.454Z,52.90
2018-07-23T13:32:44.493Z,52.90
2018-07-23T13:33:49.454Z,52.80
2018-07-23T13:34:54.408Z,52.80
2018-07-23T13:35:59.521Z,52.80
2018-07-23T13:37:04.641Z,52.90
2018-07-23T13:38:09.720Z,52.90
2018-07-23T13:39:14.797Z,52.80
2018-07-23T13:40:19.771Z,52.80
2018-07-23T13:41:24.944Z,52.80
2018-07-23T13:42:30.034Z,52.90
2018-07-23T13:43:35.229Z,52.90
2018-07-23T13:44:40.786Z,52.80
2018-07-23T13:45:45.813Z,53.50
2018-07-23T13:46:50.906Z,52.80
2018-07-23T13:47:56.079Z,52.90
2018-07-23T13:49:01.205Z,52.80
2018-07-23T13:50:06.814Z,52.90
2018-07-23T13:51:12.010Z,52.90
2018-07-23T13:52:16.977Z,52.90
2018-07-23T13:53:22.060Z,52.80
2018-07-23T13:54:27.591Z,52.80
2018-07-23T13:55:32.980Z,52.90
2018-07-23T13:56:38.412Z,52.80
2018-07-23T13:57:43.430Z,52.90